createdAt,value
2022-12-15T00:01:49.725Z,19.08
2022-12-15T00:04:34.538Z,18.83
2022-12-15T00:07:19.242Z,19.52
2022-12-15T00:10:04.376Z,15.63
2022-12-15T00:12:49.237Z,17.95
2022-12-15T00:15:34.068Z,17.02
2022-12-15T00:18:25.963Z,12.73
2022-12-15T00:21:15.366Z,19.00
2022-12-15T00:24:00.083Z,17.65
2022-12-15T00:26:44.883Z,14.33
2022-12-15T00:29:29.588Z,12.93
2022-12-15T00:32:14.252Z,17.83
2022-12-15T00:34:59.199Z,13.93
2022-12-15T00:37:44.100Z,16.25
2022-12-15T00:40:11.058Z,16.30
2022-12-15T00:42:37.517Z,17.75
2022-12-15T00:45:04.134Z,16.83
2022-12-15T00:47:32.438Z,16.40
2022-12-15T00:50:17.894Z,16.90
2022-12-15T00:53:03.327Z,15.82
2022-12-15T00:55:48.112Z,15.25
2022-12-15T00:58:32.888Z,15.90
2022-12-15T01:01:24.897Z,13.15
2022-12-15T01:04:10.128Z,15.27
2022-12-15T01:06:55.201Z,15.82
2022-12-15T01:09:39.870Z,16.52
2022-12-15T01:12:25.161Z,16.25
2022-12-15T01:15:09.924Z,16.95
2022-12-15T01:17:54.683Z,12.90
2022-12-15T01:20:21.222Z,16.25
2022-12-15T01:22:54.029Z,15.48
2022-12-15T01:25:23.255Z,16.92
2022-12-15T01:27:50.381Z,15.05
2022-12-15T01:30:23.200Z,16.13
2022-12-15T01:32:49.922Z,15.23
2022-12-15T01:35:17.611Z,15.45
2022-12-15T01:37:44.474Z,15.18
2022-12-15T01:40:35.608Z,16.10
2022-12-15T01:43:02.145Z,14.90
2022-12-15T01:45:28.384Z,15.10
2022-12-15T01:48:09.217Z,15.00
2022-12-15T01:50:42.183Z,15.82
2022-12-15T01:53:09.475Z,15.45
2022-12-15T01:55:36.854Z,14.85
2022-12-15T01:58:06.802Z,13.90
2022-12-15T02:00:34.134Z,15.40
2022-12-15T02:03:02.008Z,13.70
2022-12-15T02:05:31.657Z,14.07
2022-12-15T02:08:00.948Z,14.57
2022-12-15T02:10:42.393Z,14.38
2022-12-15T02:14:04.181Z,14.05
2022-12-15T02:17:29.472Z,13.45
2022-12-15T02:20:43.946Z,14.18
2022-12-15T02:23:41.229Z,13.88
2022-12-15T02:26:38.219Z,13.25
2022-12-15T02:29:36.018Z,14.02
2022-12-15T02:32:14.898Z,13.35
2022-12-15T02:34:57.465Z,14.43
2022-12-15T02:37:31.712Z,12.82
2022-12-15T02:39:58.153Z,14.67
2022-12-15T02:42:28.406Z,13.77
2022-12-15T02:45:09.981Z,13.60
2022-12-15T02:47:46.156Z,14.35
2022-12-15T02:50:37.253Z,13.20
2022-12-15T02:53:34.354Z,13.40
2022-12-15T02:56:29.888Z,12.93
2022-12-15T02:59:02.017Z,13.77
2022-12-15T03:01:36.782Z,11.63
2022-12-15T03:04:07.328Z,13.38
2022-12-15T03:06:33.784Z,12.93
2022-12-15T03:09:00.125Z,13.90
2022-12-15T03:11:26.956Z,13.45
2022-12-15T03:13:54.060Z,13.13
2022-12-15T03:16:21.153Z,14.38
2022-12-15T03:18:47.684Z,13.55
2022-12-15T03:21:14.170Z,14.90
2022-12-15T03:23:40.576Z,14.65
2022-12-15T03:26:06.935Z,15.73
2022-12-15T03:28:34.055Z,14.73
2022-12-15T03:31:00.415Z,14.85
2022-12-15T03:33:26.774Z,13.18
2022-12-15T03:35:53.065Z,13.15
2022-12-15T03:38:19.406Z,12.93
2022-12-15T03:40:45.750Z,14.32
2022-12-15T03:43:12.171Z,14.25
2022-12-15T03:45:38.567Z,12.95
2022-12-15T03:48:05.019Z,13.05
2022-12-15T03:50:31.373Z,13.55
2022-12-15T03:53:02.507Z,13.25
2022-12-15T03:55:29.468Z,13.88
2022-12-15T03:57:56.268Z,13.50
2022-12-15T04:00:24.601Z,12.98
2022-12-15T04:02:51.654Z,14.20
2022-12-15T04:05:22.585Z,14.98
2022-12-15T04:07:48.906Z,13.25
2022-12-15T04:10:15.473Z,13.27
2022-12-15T04:12:41.925Z,13.63
2022-12-15T04:15:10.334Z,14.23
2022-12-15T04:17:36.938Z,14.23
2022-12-15T04:20:10.256Z,13.65
2022-12-15T04:22:42.021Z,13.98
2022-12-15T04:25:30.109Z,14.38
2022-12-15T04:28:14.941Z,14.43
2022-12-15T04:31:04.303Z,13.63
2022-12-15T04:33:50.170Z,13.98
2022-12-15T04:36:35.363Z,14.23
2022-12-15T04:39:22.966Z,13.98
2022-12-15T04:42:08.278Z,13.55
2022-12-15T04:44:53.315Z,14.00
2022-12-15T04:47:38.092Z,13.88
2022-12-15T04:50:23.314Z,13.77
2022-12-15T04:53:07.975Z,13.57
2022-12-15T04:55:56.363Z,14.02
2022-12-15T04:58:41.595Z,13.93
2022-12-15T05:01:26.455Z,14.20
2022-12-15T05:04:11.628Z,13.18
2022-12-15T05:06:56.400Z,14.48
2022-12-15T05:09:41.165Z,14.57
2022-12-15T05:12:25.973Z,15.20
2022-12-15T05:15:10.788Z,14.65
2022-12-15T05:17:55.567Z,14.75
2022-12-15T05:20:40.503Z,14.80
2022-12-15T05:23:25.195Z,14.18
2022-12-15T05:26:10.123Z,13.50
2022-12-15T05:28:54.845Z,13.95
2022-12-15T05:31:39.708Z,13.87
2022-12-15T05:34:06.887Z,14.00
2022-12-15T05:36:33.285Z,14.07
2022-12-15T05:38:59.630Z,12.25
2022-12-15T05:41:25.977Z,14.15
2022-12-15T05:43:52.393Z,14.80
2022-12-15T05:46:19.866Z,13.82
2022-12-15T05:48:46.356Z,15.32
2022-12-15T05:51:13.297Z,14.88
2022-12-15T05:53:40.893Z,14.55
2022-12-15T05:56:13.222Z,14.75
2022-12-15T05:58:45.192Z,14.15
2022-12-15T06:01:15.365Z,14.70
2022-12-15T06:03:42.363Z,14.18
2022-12-15T06:06:10.158Z,15.65
2022-12-15T06:08:39.322Z,14.07
2022-12-15T06:11:06.201Z,14.70
2022-12-15T06:13:35.361Z,14.40
2022-12-15T06:16:05.000Z,14.90
2022-12-15T06:18:37.440Z,13.85
2022-12-15T06:21:06.978Z,14.25
2022-12-15T06:23:34.553Z,14.00
2022-12-15T06:26:12.515Z,14.38
2022-12-15T06:28:38.883Z,13.85
2022-12-15T06:31:07.394Z,14.32
2022-12-15T06:33:34.517Z,13.65
2022-12-15T06:36:07.069Z,13.57
2022-12-15T06:38:33.867Z,13.68
2022-12-15T06:41:01.341Z,15.35
2022-12-15T06:43:28.964Z,14.90
2022-12-15T06:45:56.126Z,14.50
2022-12-15T06:48:23.783Z,13.75
2022-12-15T06:50:51.195Z,13.68
2022-12-15T06:53:19.365Z,14.95
2022-12-15T06:55:46.291Z,14.57
2022-12-15T06:58:13.996Z,14.98
2022-12-15T07:00:45.462Z,14.93
2022-12-15T07:03:18.238Z,14.10
2022-12-15T07:05:45.554Z,14.80
2022-12-15T07:08:16.483Z,14.02
2022-12-15T07:10:44.609Z,14.77
2022-12-15T07:13:12.454Z,15.25
2022-12-15T07:15:39.726Z,13.82
2022-12-15T07:18:06.614Z,15.57
2022-12-15T07:20:33.366Z,15.82
2022-12-15T07:23:00.646Z,14.38
2022-12-15T07:25:26.985Z,16.67
2022-12-15T07:27:53.285Z,15.95
2022-12-15T07:30:19.626Z,16.45
2022-12-15T07:32:50.177Z,15.85
2022-12-15T07:35:17.839Z,15.77
2022-12-15T07:37:44.159Z,14.90
2022-12-15T07:40:11.017Z,16.45
2022-12-15T07:42:37.410Z,16.05
2022-12-15T07:45:05.413Z,15.98
2022-12-15T07:47:32.107Z,15.68
2022-12-15T07:49:58.719Z,15.63
2022-12-15T07:52:25.336Z,16.13
2022-12-15T07:54:51.729Z,16.08
2022-12-15T07:57:18.464Z,15.32
2022-12-15T07:59:44.849Z,15.88
2022-12-15T08:02:12.473Z,15.27
2022-12-15T08:04:40.029Z,15.07
2022-12-15T08:07:07.072Z,16.77
2022-12-15T08:09:33.414Z,16.23
2022-12-15T08:11:59.767Z,16.20
2022-12-15T08:14:26.208Z,16.80
2022-12-15T08:16:52.621Z,17.17
2022-12-15T08:19:19.145Z,16.52
2022-12-15T08:21:46.753Z,16.50
2022-12-15T08:24:14.192Z,16.83
2022-12-15T08:26:42.060Z,16.85
2022-12-15T08:31:58.528Z,16.75
2022-12-15T08:34:24.997Z,15.75
2022-12-15T08:36:54.446Z,16.33
2022-12-15T08:39:29.869Z,16.55
2022-12-15T08:41:56.185Z,16.38
2022-12-15T08:44:22.745Z,16.38
2022-12-15T08:46:49.044Z,16.95
2022-12-15T08:49:21.516Z,16.98
2022-12-15T08:51:50.000Z,18.80
2022-12-15T08:54:17.125Z,17.05
2022-12-15T08:56:43.457Z,17.15
2022-12-15T08:59:09.935Z,17.73
2022-12-15T09:01:40.085Z,17.77
2022-12-15T09:04:06.722Z,17.73
2022-12-15T09:06:35.397Z,18.10
2022-12-15T09:09:07.703Z,20.33
2022-12-15T09:11:34.595Z,16.50
2022-12-15T09:14:01.097Z,17.00
2022-12-15T09:16:28.249Z,18.80
2022-12-15T09:18:57.081Z,17.98
2022-12-15T09:21:26.168Z,19.50
2022-12-15T09:23:57.620Z,18.33
2022-12-15T09:26:24.022Z,18.85
2022-12-15T09:28:51.165Z,20.38
2022-12-15T09:31:21.915Z,18.75
2022-12-15T09:33:50.436Z,18.58
2022-12-15T09:36:16.922Z,18.38
2022-12-15T09:38:44.014Z,18.88
2022-12-15T09:41:13.320Z,19.83
2022-12-15T09:44:03.129Z,17.98
2022-12-15T09:46:50.297Z,19.40
2022-12-15T09:49:35.431Z,19.15
2022-12-15T09:52:14.426Z,17.95
2022-12-15T09:54:43.408Z,17.65
2022-12-15T09:57:56.064Z,18.48
2022-12-15T10:00:36.907Z,18.27
2022-12-15T10:03:45.211Z,17.80
2022-12-15T10:06:18.447Z,18.02
2022-12-15T10:08:55.860Z,18.02
2022-12-15T10:11:35.798Z,18.65
2022-12-15T10:14:15.512Z,19.20
2022-12-15T10:17:21.433Z,18.50
2022-12-15T10:20:03.297Z,19.23
2022-12-15T10:22:39.032Z,17.95
2022-12-15T10:25:30.452Z,20.88
2022-12-15T10:28:15.708Z,19.58
2022-12-15T10:31:00.059Z,19.40
2022-12-15T10:33:33.295Z,20.73
2022-12-15T10:36:00.123Z,20.17
2022-12-15T10:38:40.458Z,20.33
2022-12-15T10:41:12.308Z,19.75
2022-12-15T10:43:41.848Z,19.98
2022-12-15T10:46:13.812Z,20.55
2022-12-15T10:48:43.971Z,19.40
2022-12-15T10:51:31.500Z,21.25
2022-12-15T10:54:04.466Z,20.17
2022-12-15T10:56:33.890Z,21.42
2022-12-15T10:59:39.385Z,20.65
2022-12-15T11:02:25.079Z,20.45
2022-12-15T11:04:59.470Z,20.90
2022-12-15T11:07:46.053Z,20.10
2022-12-15T11:10:21.557Z,18.20
2022-12-15T11:13:10.376Z,20.10
2022-12-15T11:15:51.639Z,20.25
2022-12-15T11:18:21.021Z,20.23
2022-12-15T11:20:54.405Z,19.48
2022-12-15T11:23:34.193Z,20.00
2022-12-15T11:26:07.429Z,20.23
2022-12-15T11:29:00.223Z,20.35
2022-12-15T11:31:33.404Z,21.42
2022-12-15T11:33:59.844Z,20.77
2022-12-15T11:36:53.790Z,20.98
2022-12-15T11:39:32.292Z,20.38
2022-12-15T11:42:22.469Z,21.35
2022-12-15T11:45:03.085Z,20.25
2022-12-15T11:47:55.596Z,20.73
2022-12-15T11:50:41.075Z,19.27
2022-12-15T11:53:18.578Z,20.60
2022-12-15T11:56:16.011Z,21.10
2022-12-15T11:59:17.568Z,20.35
2022-12-15T12:02:05.715Z,19.08
2022-12-15T12:05:19.885Z,20.92
2022-12-15T12:07:58.115Z,19.35
2022-12-15T12:10:40.007Z,20.73
2022-12-15T12:13:34.063Z,21.08
2022-12-15T12:16:26.942Z,20.48
2022-12-15T12:19:51.991Z,20.38
2022-12-15T12:22:29.983Z,19.92
2022-12-15T12:25:03.519Z,22.00
2022-12-15T12:27:42.844Z,19.30
2022-12-15T12:30:18.501Z,20.40
2022-12-15T12:32:50.934Z,21.98
2022-12-15T12:35:31.054Z,21.55
2022-12-15T12:38:03.866Z,20.90
2022-12-15T12:40:55.827Z,21.30
2022-12-15T12:43:38.146Z,22.13
2022-12-15T12:46:25.447Z,20.58
2022-12-15T12:49:11.358Z,21.17
2022-12-15T12:51:41.341Z,21.63
2022-12-15T12:54:33.557Z,21.38
2022-12-15T12:57:00.953Z,20.33
2022-12-15T12:59:30.377Z,21.75
2022-12-15T13:02:15.218Z,21.67
2022-12-15T13:04:44.322Z,21.42
2022-12-15T13:07:29.299Z,21.98
2022-12-15T13:10:07.802Z,21.13
2022-12-15T13:12:53.200Z,19.67
2022-12-15T13:15:35.800Z,20.75
2022-12-15T13:18:25.171Z,20.27
2022-12-15T13:20:55.275Z,21.38
2022-12-15T13:23:21.630Z,21.13
2022-12-15T13:25:57.125Z,20.75
2022-12-15T13:31:21.717Z,18.30
2022-12-15T13:33:51.249Z,19.42
2022-12-15T13:36:36.437Z,20.45
2022-12-15T13:39:23.044Z,20.00
2022-12-15T13:44:43.879Z,21.05
2022-12-15T13:47:25.045Z,20.10
2022-12-15T13:55:39.151Z,19.65
2022-12-15T13:58:19.289Z,19.45
2022-12-15T14:00:58.037Z,20.48
2022-12-15T14:03:25.825Z,20.50
2022-12-15T14:05:55.285Z,21.42
2022-12-15T14:08:23.977Z,19.65
2022-12-15T14:10:54.620Z,20.85
2022-12-15T14:13:24.945Z,21.48
2022-12-15T14:15:58.105Z,20.77
2022-12-15T14:18:30.502Z,20.05
2022-12-15T14:20:58.562Z,20.77
2022-12-15T14:23:38.362Z,20.40
2022-12-15T14:26:08.435Z,20.42
2022-12-15T14:28:36.856Z,21.60
2022-12-15T14:31:17.486Z,20.98
2022-12-15T14:33:46.780Z,20.58
2022-12-15T14:36:20.386Z,21.70
2022-12-15T14:39:18.251Z,23.20
2022-12-15T14:41:49.198Z,21.15
2022-12-15T14:44:31.906Z,19.75
2022-12-15T14:47:16.499Z,20.95
2022-12-15T14:49:45.313Z,21.48
2022-12-15T14:52:27.052Z,22.45
2022-12-15T14:55:02.191Z,23.17
2022-12-15T14:57:41.114Z,22.13
2022-12-15T15:00:32.429Z,21.55
2022-12-15T15:03:07.607Z,19.45
2022-12-15T15:06:01.189Z,19.48
2022-12-15T15:08:32.613Z,18.48
2022-12-15T15:11:04.630Z,18.13
2022-12-15T15:13:40.850Z,18.92
2022-12-15T15:16:15.660Z,20.17
2022-12-15T15:18:43.279Z,20.73
2022-12-15T15:21:21.388Z,19.25
2022-12-15T15:24:11.944Z,19.33
2022-12-15T15:26:44.095Z,20.13
2022-12-15T15:29:32.213Z,19.52
2022-12-15T15:32:22.382Z,19.52
2022-12-15T15:34:49.659Z,18.73
2022-12-15T15:37:22.568Z,20.90
2022-12-15T15:39:50.407Z,21.75
2022-12-15T15:42:17.963Z,21.65
2022-12-15T15:44:47.050Z,21.70
2022-12-15T15:47:25.476Z,23.63
2022-12-15T15:49:58.161Z,22.13
2022-12-15T15:52:29.893Z,22.92
2022-12-15T15:54:56.334Z,23.50
2022-12-15T15:57:22.687Z,22.17
2022-12-15T15:59:49.106Z,23.50
2022-12-15T16:02:18.452Z,22.50
2022-12-15T16:04:45.567Z,21.45
2022-12-15T16:07:26.756Z,21.58
2022-12-15T16:09:53.784Z,22.50
2022-12-15T16:12:50.122Z,21.02
2022-12-15T16:17:47.795Z,19.95
2022-12-15T16:20:17.217Z,21.05
2022-12-15T16:22:47.100Z,21.25
2022-12-15T16:25:25.790Z,22.17
2022-12-15T16:27:52.196Z,21.95
2022-12-15T16:30:23.321Z,23.33
2022-12-15T16:32:50.477Z,22.35
2022-12-15T16:35:17.810Z,21.67
2022-12-15T16:37:49.075Z,20.95
2022-12-15T16:40:25.342Z,21.85
2022-12-15T16:42:54.009Z,24.20
2022-12-15T16:45:21.882Z,24.80
2022-12-15T16:47:48.626Z,23.77
2022-12-15T16:50:18.443Z,23.80
2022-12-15T16:52:47.536Z,22.25
2022-12-15T16:55:24.008Z,23.02
2022-12-15T16:57:51.876Z,22.55
2022-12-15T17:00:23.324Z,23.75
2022-12-15T17:02:49.923Z,23.70
2022-12-15T17:05:17.199Z,22.05
2022-12-15T17:07:47.817Z,23.20
2022-12-15T17:10:33.387Z,23.42
2022-12-15T17:13:13.175Z,23.30
2022-12-15T17:15:40.091Z,22.52
2022-12-15T17:18:06.851Z,24.75
2022-12-15T17:20:33.418Z,23.45
2022-12-15T17:23:04.110Z,22.13
2022-12-15T17:26:09.719Z,21.98
2022-12-15T17:28:26.795Z,22.95
2022-12-15T17:30:54.104Z,22.67
2022-12-15T17:33:24.096Z,22.90
2022-12-15T17:35:54.253Z,24.98
2022-12-15T17:38:22.594Z,24.92
2022-12-15T17:40:51.656Z,26.35
2022-12-15T17:43:28.171Z,24.02
2022-12-15T17:45:58.337Z,24.98
2022-12-15T17:48:25.285Z,24.42
2022-12-15T17:50:53.502Z,23.80
2022-12-15T17:53:22.351Z,25.00
2022-12-15T17:55:49.786Z,25.45
2022-12-15T17:58:22.226Z,25.95
2022-12-15T18:00:51.781Z,26.65
2022-12-15T18:03:22.737Z,27.17
2022-12-15T18:05:52.926Z,24.42
2022-12-15T18:08:23.455Z,23.30
2022-12-15T18:10:53.336Z,20.83
2022-12-15T18:13:35.453Z,23.83
2022-12-15T18:16:02.139Z,22.48
2022-12-15T18:18:28.753Z,23.23
2022-12-15T18:21:00.229Z,22.45
2022-12-15T18:23:30.904Z,21.98
2022-12-15T18:26:02.848Z,23.63
2022-12-15T18:28:32.345Z,21.70
2022-12-15T18:31:06.645Z,22.90
2022-12-15T18:33:33.625Z,22.95
2022-12-15T18:36:00.329Z,22.15
2022-12-15T18:38:28.691Z,22.20
2022-12-15T18:40:58.183Z,21.90
2022-12-15T18:43:28.777Z,21.60
2022-12-15T18:45:55.969Z,21.98
2022-12-15T18:48:28.544Z,20.80
2022-12-15T18:50:57.138Z,20.67
2022-12-15T18:53:30.832Z,21.17
2022-12-15T18:56:00.580Z,20.73
2022-12-15T18:58:29.597Z,22.13
2022-12-15T19:00:58.331Z,21.00
2022-12-15T19:03:26.338Z,20.00
2022-12-15T19:06:00.116Z,20.23
2022-12-15T19:08:28.193Z,19.08
2022-12-15T19:10:57.085Z,19.48
2022-12-15T19:13:28.607Z,18.98
2022-12-15T19:15:55.521Z,18.48
2022-12-15T19:18:42.860Z,19.38
2022-12-15T19:21:38.532Z,19.10
2022-12-15T19:24:07.409Z,18.00
2022-12-15T19:26:33.747Z,20.08
2022-12-15T19:29:00.275Z,19.48
2022-12-15T19:31:26.729Z,19.00
2022-12-15T19:33:53.326Z,21.23
2022-12-15T19:36:25.708Z,21.00
2022-12-15T19:38:54.800Z,22.30
2022-12-15T19:41:21.441Z,21.98
2022-12-15T19:43:47.969Z,23.38
2022-12-15T19:46:17.678Z,22.73
2022-12-15T19:48:44.460Z,23.98
2022-12-15T19:51:13.421Z,22.45
2022-12-15T19:53:40.661Z,22.63
2022-12-15T19:56:07.831Z,22.38
2022-12-15T19:58:35.386Z,23.08
2022-12-15T20:01:06.188Z,22.35
2022-12-15T20:03:34.322Z,21.40
2022-12-15T20:06:02.706Z,21.50
2022-12-15T20:08:38.100Z,20.50
2022-12-15T20:13:31.905Z,17.88
2022-12-15T20:15:58.574Z,17.48
2022-12-15T20:18:24.967Z,20.17
2022-12-15T20:20:51.419Z,20.98
2022-12-15T20:23:21.239Z,21.63
2022-12-15T20:25:47.880Z,21.02
2022-12-15T20:28:18.986Z,21.52
2022-12-15T20:30:46.232Z,21.83
2022-12-15T20:33:13.082Z,21.33
2022-12-15T20:35:40.478Z,23.65
2022-12-15T20:38:24.982Z,29.48
2022-12-15T20:40:52.508Z,29.67
2022-12-15T20:43:21.582Z,25.90
2022-12-15T20:45:54.761Z,25.67
2022-12-15T20:48:24.636Z,24.95
2022-12-15T20:50:51.047Z,26.10
2022-12-15T20:53:19.940Z,27.05
2022-12-15T20:55:48.202Z,24.65
2022-12-15T20:58:15.229Z,24.92
2022-12-15T21:00:42.103Z,23.25
2022-12-15T21:03:27.962Z,24.45
2022-12-15T21:05:56.515Z,25.75
2022-12-15T21:08:27.303Z,23.50
2022-12-15T21:11:00.069Z,24.38
2022-12-15T21:13:30.066Z,22.73
2022-12-15T21:15:56.718Z,27.63
2022-12-15T21:19:03.956Z,26.77
2022-12-15T21:21:18.644Z,29.73
2022-12-15T21:23:45.681Z,29.35
2022-12-15T21:26:20.223Z,28.20
2022-12-15T21:28:48.693Z,20.20
2022-12-15T21:31:16.508Z,33.40
2022-12-15T21:33:43.275Z,29.13
2022-12-15T21:36:16.700Z,27.25
2022-12-15T21:38:45.802Z,27.85
2022-12-15T21:41:15.497Z,26.38
2022-12-15T21:43:42.817Z,25.50
2022-12-15T21:46:19.051Z,24.73
2022-12-15T21:49:06.261Z,23.35
2022-12-15T21:51:37.274Z,24.40
2022-12-15T21:54:05.093Z,25.00
2022-12-15T21:56:32.012Z,25.98
2022-12-15T21:58:59.008Z,23.92
2022-12-15T22:01:29.754Z,26.67
2022-12-15T22:03:58.453Z,25.88
2022-12-15T22:06:27.921Z,24.88
2022-12-15T22:08:58.508Z,24.98
2022-12-15T22:11:28.136Z,24.15
2022-12-15T22:13:55.855Z,24.58
2022-12-15T22:16:23.003Z,25.10
2022-12-15T22:18:58.613Z,26.15
2022-12-15T22:21:25.648Z,24.95
2022-12-15T22:23:52.283Z,25.52
2022-12-15T22:26:24.339Z,23.23
2022-12-15T22:28:51.571Z,24.73
2022-12-15T22:31:18.497Z,24.73
2022-12-15T22:33:44.934Z,26.20
2022-12-15T22:36:11.368Z,22.20
2022-12-15T22:38:37.836Z,21.67
2022-12-15T22:41:05.673Z,22.23
2022-12-15T22:43:40.826Z,21.80
2022-12-15T22:46:12.283Z,22.20
2022-12-15T22:48:42.067Z,20.63
2022-12-15T22:51:12.957Z,22.58
2022-12-15T22:53:39.445Z,20.85
2022-12-15T22:56:15.918Z,22.52
2022-12-15T22:58:47.114Z,24.25
2022-12-15T23:01:13.750Z,24.20
2022-12-15T23:03:40.121Z,26.33
2022-12-15T23:06:06.839Z,22.92
2022-12-15T23:08:33.162Z,24.10
2022-12-15T23:11:18.949Z,21.42
2022-12-15T23:16:21.652Z,18.75
2022-12-15T23:18:50.636Z,19.58
2022-12-15T23:21:18.988Z,18.67
2022-12-15T23:23:45.703Z,18.88
2022-12-15T23:26:13.009Z,18.75
2022-12-15T23:28:40.470Z,18.23
2022-12-15T23:31:07.520Z,18.95
2022-12-15T23:33:34.750Z,18.63
2022-12-15T23:36:02.228Z,19.48
2022-12-15T23:38:29.404Z,19.23
2022-12-15T23:40:56.902Z,18.50
2022-12-15T23:43:25.118Z,18.38
2022-12-15T23:46:05.573Z,17.58
2022-12-15T23:48:34.917Z,17.88
2022-12-15T23:51:05.976Z,18.48
2022-12-15T23:53:33.305Z,19.40
2022-12-15T23:56:11.496Z,18.55
2022-12-15T23:58:39.491Z,16.70
